createdAt,value
2018-12-18T00:00:07.618Z,-0.15
2018-12-18T00:01:07.592Z,-0.10
2018-12-18T00:02:07.575Z,-0.16
2018-12-18T00:03:07.563Z,-0.19
2018-12-18T00:04:07.541Z,-0.16
2018-12-18T00:05:07.524Z,-0.19
2018-12-18T00:06:07.502Z,-0.15
2018-12-18T00:07:07.482Z,-0.18
2018-12-18T00:08:07.469Z,-0.16
2018-12-18T00:09:07.445Z,-0.14
2018-12-18T00:10:07.424Z,-0.15
2018-12-18T00:11:07.405Z,-0.11
2018-12-18T00:12:07.386Z,-0.11
2018-12-18T00:13:07.371Z,-0.11
2018-12-18T00:14:07.350Z,-0.14
2018-12-18T00:15:07.330Z,-0.11
2018-12-18T00:16:07.311Z,-0.04
2018-12-18T00:17:07.293Z,-0.04
2018-12-18T00:18:07.276Z,-0.05
2018-12-18T00:19:07.256Z,0.00
2018-12-18T00:20:07.238Z,0.02
2018-12-18T00:21:07.222Z,-0.03
2018-12-18T00:22:07.201Z,0.00
2018-12-18T00:23:07.189Z,-0.01
2018-12-18T00:24:07.159Z,-0.03
2018-12-18T00:25:07.140Z,0.07
2018-12-18T00:26:07.122Z,0.00
2018-12-18T00:27:07.112Z,0.03
2018-12-18T00:28:07.084Z,0.04
2018-12-18T00:29:07.067Z,-0.01
2018-12-18T00:30:07.054Z,-0.07
2018-12-18T00:31:07.022Z,0.07
2018-12-18T00:32:07.011Z,0.07
2018-12-18T00:33:06.991Z,0.08
2018-12-18T00:34:06.971Z,0.00
2018-12-18T00:35:06.949Z,0.02
2018-12-18T00:36:06.931Z,0.10
2018-12-18T00:37:06.919Z,0.08
2018-12-18T00:38:06.891Z,-0.04
2018-12-18T00:39:06.875Z,0.04
2018-12-18T00:40:06.859Z,0.02
2018-12-18T00:41:06.833Z,-0.03
2018-12-18T00:42:06.826Z,-0.03
2018-12-18T00:43:06.797Z,-0.08
2018-12-18T00:44:06.782Z,-0.18
2018-12-18T00:45:06.763Z,-0.07
2018-12-18T00:46:06.741Z,-0.16
2018-12-18T00:47:06.721Z,-0.19
2018-12-18T00:48:06.706Z,-0.19
2018-12-18T00:49:06.685Z,-0.18
2018-12-18T00:50:06.671Z,-0.26
2018-12-18T00:51:06.647Z,-0.26
2018-12-18T00:52:06.633Z,-0.37
2018-12-18T00:53:06.612Z,-0.36
2018-12-18T00:54:06.595Z,-0.37
2018-12-18T00:55:06.569Z,-0.34
2018-12-18T00:56:06.555Z,-0.26
2018-12-18T00:57:06.538Z,-0.23
2018-12-18T00:58:06.519Z,-0.26
2018-12-18T00:59:06.491Z,-0.28
2018-12-18T01:00:06.480Z,-0.34
2018-12-18T01:01:06.460Z,-0.33
2018-12-18T01:02:06.440Z,-0.39
2018-12-18T01:03:06.423Z,-0.36
2018-12-18T01:04:06.408Z,-0.51
2018-12-18T01:05:06.386Z,-0.44
2018-12-18T01:06:06.359Z,-0.42
2018-12-18T01:07:06.342Z,-0.44
2018-12-18T01:08:06.325Z,-0.43
2018-12-18T01:09:06.305Z,-0.44
2018-12-18T01:10:06.286Z,-0.52
2018-12-18T01:11:06.274Z,-0.54
2018-12-18T01:12:06.248Z,-0.64
2018-12-18T01:13:06.227Z,-0.64
2018-12-18T01:14:06.209Z,-0.65
2018-12-18T01:15:06.191Z,-0.64
2018-12-18T01:16:06.172Z,-0.67
2018-12-18T01:17:06.149Z,-0.78
2018-12-18T01:18:06.131Z,-0.82
2018-12-18T01:19:06.117Z,-0.69
2018-12-18T01:20:06.093Z,-0.78
2018-12-18T01:21:08.988Z,-0.78
2018-12-18T01:22:06.058Z,-0.78
2018-12-18T01:23:06.044Z,-0.67
2018-12-18T01:24:06.020Z,-0.80
2018-12-18T01:25:06.000Z,-0.80
2018-12-18T01:26:05.976Z,-0.79
2018-12-18T01:27:05.964Z,-0.73
2018-12-18T01:28:05.933Z,-0.70
2018-12-18T01:29:05.919Z,-0.75
2018-12-18T01:30:05.897Z,-0.70
2018-12-18T01:31:05.892Z,-0.69
2018-12-18T01:32:05.859Z,-0.72
2018-12-18T01:33:05.858Z,-0.75
2018-12-18T01:34:05.821Z,-0.78
2018-12-18T01:35:05.804Z,-0.73
2018-12-18T01:36:05.786Z,-0.76
2018-12-18T01:37:05.780Z,-0.78
2018-12-18T01:38:05.748Z,-0.82
2018-12-18T01:39:05.726Z,-0.82
2018-12-18T01:40:05.706Z,-0.78
2018-12-18T01:41:05.686Z,-0.89
2018-12-18T01:42:05.662Z,-0.85
2018-12-18T01:43:05.653Z,-0.80
2018-12-18T01:44:05.631Z,-0.78
2018-12-18T01:45:05.618Z,-0.80
2018-12-18T01:46:05.592Z,-0.82
2018-12-18T01:47:05.571Z,-0.80
2018-12-18T01:48:05.556Z,-0.82
2018-12-18T01:49:05.531Z,-0.82
2018-12-18T01:50:05.511Z,-0.83
2018-12-18T01:51:05.494Z,-0.82
2018-12-18T01:52:05.479Z,-0.82
2018-12-18T01:53:05.461Z,-0.78
2018-12-18T01:54:05.436Z,-0.82
2018-12-18T01:55:05.486Z,-0.86
2018-12-18T01:56:05.395Z,-0.91
2018-12-18T01:57:05.377Z,-0.91
2018-12-18T01:58:05.355Z,-0.94
2018-12-18T01:59:05.341Z,-0.94
2018-12-18T02:00:05.325Z,-0.97
2018-12-18T02:01:05.300Z,-0.95
2018-12-18T02:02:05.276Z,-0.97
2018-12-18T02:03:05.273Z,-0.94
2018-12-18T02:04:06.149Z,-0.99
2018-12-18T02:05:05.220Z,-0.95
2018-12-18T02:06:05.196Z,-0.98
2018-12-18T02:07:05.188Z,-1.01
2018-12-18T02:08:05.160Z,-0.99
2018-12-18T02:09:05.149Z,-0.91
2018-12-18T02:10:05.129Z,-0.94
2018-12-18T02:11:05.117Z,-0.83
2018-12-18T02:12:05.084Z,-0.83
2018-12-18T02:13:05.066Z,-0.89
2018-12-18T02:14:05.044Z,-0.80
2018-12-18T02:15:05.026Z,-0.78
2018-12-18T02:16:05.008Z,-0.85
2018-12-18T02:17:04.989Z,-0.82
2018-12-18T02:18:04.967Z,-0.80
2018-12-18T02:19:04.948Z,-0.85
2018-12-18T02:20:04.932Z,-0.86
2018-12-18T02:21:04.911Z,-0.80
2018-12-18T02:22:04.889Z,-0.78
2018-12-18T02:23:04.873Z,-0.82
2018-12-18T02:24:04.854Z,-0.83
2018-12-18T02:25:04.838Z,-0.83
2018-12-18T02:26:04.812Z,-0.89
2018-12-18T02:27:04.789Z,-0.78
2018-12-18T02:28:04.777Z,-0.79
2018-12-18T02:29:04.752Z,-0.80
2018-12-18T02:30:04.733Z,-0.80
2018-12-18T02:31:04.711Z,-0.80
2018-12-18T02:32:04.692Z,-0.80
2018-12-18T02:33:04.681Z,-0.75
2018-12-18T02:34:04.653Z,-0.72
2018-12-18T02:35:04.633Z,-0.73
2018-12-18T02:36:04.616Z,-0.79
2018-12-18T02:37:04.595Z,-0.73
2018-12-18T02:38:04.583Z,-0.78
2018-12-18T02:39:04.554Z,-0.76
2018-12-18T02:40:04.538Z,-0.76
2018-12-18T02:41:04.521Z,-0.76
2018-12-18T02:42:04.503Z,-0.70
2018-12-18T02:43:04.471Z,-0.67
2018-12-18T02:44:04.457Z,-0.70
2018-12-18T02:45:04.441Z,-0.69
2018-12-18T02:46:04.424Z,-0.70
2018-12-18T02:47:04.395Z,-0.64
2018-12-18T02:48:04.387Z,-0.64
2018-12-18T02:49:04.358Z,-0.64
2018-12-18T02:50:04.332Z,-0.65
2018-12-18T02:51:04.426Z,-0.70
2018-12-18T02:52:04.309Z,-0.72
2018-12-18T02:53:04.276Z,-0.64
2018-12-18T02:54:04.262Z,-0.70
2018-12-18T02:55:04.240Z,-0.82
2018-12-18T02:56:04.221Z,-0.75
2018-12-18T02:57:04.204Z,-0.75
2018-12-18T02:58:04.177Z,-0.78
2018-12-18T02:59:04.174Z,-0.79
2018-12-18T03:00:04.141Z,-0.76
2018-12-18T03:01:04.121Z,-0.76
2018-12-18T03:02:04.106Z,-0.80
2018-12-18T03:03:04.083Z,-0.82
2018-12-18T03:04:04.063Z,-0.79
2018-12-18T03:05:04.047Z,-0.80
2018-12-18T03:06:04.026Z,-0.82
2018-12-18T03:07:04.006Z,-0.85
2018-12-18T03:08:03.980Z,-0.89
2018-12-18T03:09:03.962Z,-0.99
2018-12-18T03:10:03.943Z,-0.98
2018-12-18T03:11:03.925Z,-1.04
2018-12-18T03:12:03.909Z,-1.02
2018-12-18T03:13:03.889Z,-0.95
2018-12-18T03:14:03.863Z,-0.92
2018-12-18T03:15:03.847Z,-0.97
2018-12-18T03:16:03.827Z,-0.99
2018-12-18T03:17:03.806Z,-1.01
2018-12-18T03:18:03.784Z,-1.01
2018-12-18T03:19:03.766Z,-0.99
2018-12-18T03:20:03.746Z,-1.01
2018-12-18T03:21:03.727Z,-1.04
2018-12-18T03:22:03.713Z,-1.02
2018-12-18T03:23:03.697Z,-1.02
2018-12-18T03:24:03.669Z,-1.01
2018-12-18T03:25:03.659Z,-0.99
2018-12-18T03:26:03.625Z,-1.04
2018-12-18T03:27:03.609Z,-0.99
2018-12-18T03:28:03.590Z,-1.09
2018-12-18T03:29:03.571Z,-1.07
2018-12-18T03:30:03.556Z,-1.09
2018-12-18T03:31:03.531Z,-1.15
2018-12-18T03:32:03.510Z,-1.22
2018-12-18T03:33:03.497Z,-1.17
2018-12-18T03:34:03.467Z,-1.19
2018-12-18T03:35:03.462Z,-1.28
2018-12-18T03:36:03.426Z,-1.16
2018-12-18T03:37:03.418Z,-1.17
2018-12-18T03:38:03.390Z,-1.20
2018-12-18T03:39:03.373Z,-1.33
2018-12-18T03:40:03.355Z,-1.20
2018-12-18T03:41:03.334Z,-1.19
2018-12-18T03:42:03.312Z,-1.15
2018-12-18T03:43:03.296Z,-1.31
2018-12-18T03:44:03.270Z,-1.23
2018-12-18T03:45:03.262Z,-1.30
2018-12-18T03:46:03.234Z,-1.33
2018-12-18T03:47:03.213Z,-1.31
2018-12-18T03:48:03.191Z,-1.33
2018-12-18T03:49:03.172Z,-1.43
2018-12-18T03:50:03.157Z,-1.41
2018-12-18T03:51:03.131Z,-1.40
2018-12-18T03:52:03.108Z,-1.43
2018-12-18T03:53:03.093Z,-1.33
2018-12-18T03:54:03.071Z,-1.48
2018-12-18T03:55:03.051Z,-1.37
2018-12-18T03:56:03.031Z,-1.33
2018-12-18T03:57:03.008Z,-1.37
2018-12-18T03:58:02.992Z,-1.43
2018-12-18T03:59:02.972Z,-1.40
2018-12-18T04:00:02.953Z,-1.40
2018-12-18T04:01:02.935Z,-1.30
2018-12-18T04:02:02.913Z,-1.35
2018-12-18T04:03:02.891Z,-1.31
2018-12-18T04:04:02.877Z,-1.27
2018-12-18T04:05:02.856Z,-1.23
2018-12-18T04:06:02.827Z,-1.37
2018-12-18T04:07:02.819Z,-1.34
2018-12-18T04:08:02.794Z,-1.28
2018-12-18T04:09:02.770Z,-1.30
2018-12-18T04:10:02.755Z,-1.28
2018-12-18T04:11:02.738Z,-1.38
2018-12-18T04:12:02.716Z,-1.30
2018-12-18T04:13:02.686Z,-1.30
2018-12-18T04:14:02.666Z,-1.34
2018-12-18T04:15:02.651Z,-1.35
2018-12-18T04:16:02.636Z,-1.40
2018-12-18T04:17:02.611Z,-1.37
2018-12-18T04:18:02.596Z,-1.34
2018-12-18T04:19:02.572Z,-1.30
2018-12-18T04:20:02.554Z,-1.28
2018-12-18T04:21:02.539Z,-1.25
2018-12-18T04:22:02.507Z,-1.28
2018-12-18T04:23:02.490Z,-1.20
2018-12-18T04:24:02.468Z,-1.23
2018-12-18T04:25:02.455Z,-1.23
2018-12-18T04:26:02.435Z,-1.12
2018-12-18T04:27:02.404Z,-1.02
2018-12-18T04:28:02.392Z,-1.09
2018-12-18T04:29:02.368Z,-1.09
2018-12-18T04:30:02.348Z,-1.02
2018-12-18T04:31:02.334Z,-0.99
2018-12-18T04:32:02.305Z,-1.05
2018-12-18T04:33:02.289Z,-1.02
2018-12-18T04:34:02.279Z,-1.05
2018-12-18T04:35:02.247Z,-1.05
2018-12-18T04:36:02.228Z,-1.07
2018-12-18T04:37:02.207Z,-1.10
2018-12-18T04:38:02.187Z,-1.10
2018-12-18T04:39:02.168Z,-1.09
2018-12-18T04:40:02.140Z,-1.04
2018-12-18T04:41:02.132Z,-1.13
2018-12-18T04:42:02.111Z,-1.15
2018-12-18T04:43:02.088Z,-1.23
2018-12-18T04:44:02.068Z,-1.27
2018-12-18T04:45:02.050Z,-1.19
2018-12-18T04:46:02.022Z,-1.17
2018-12-18T04:47:02.012Z,-1.25
2018-12-18T04:48:01.994Z,-1.17
2018-12-18T04:49:01.961Z,-1.20
2018-12-18T04:50:01.950Z,-1.16
2018-12-18T04:51:01.926Z,-1.13
2018-12-18T04:52:01.925Z,-1.12
2018-12-18T04:53:01.880Z,-1.10
2018-12-18T04:54:01.878Z,-1.17
2018-12-18T04:55:01.844Z,-1.17
2018-12-18T04:56:01.839Z,-1.16
2018-12-18T04:57:01.801Z,-1.04
2018-12-18T04:58:01.790Z,-1.05
2018-12-18T04:59:01.763Z,-1.09
2018-12-18T05:00:01.743Z,-1.05
2018-12-18T05:01:01.723Z,-1.01
2018-12-18T05:02:01.701Z,-0.95
2018-12-18T05:03:01.683Z,-0.99
2018-12-18T05:04:01.757Z,-0.99
2018-12-18T05:05:01.646Z,-1.01
2018-12-18T05:06:01.618Z,-0.98
2018-12-18T05:07:01.627Z,-0.97
2018-12-18T05:08:01.622Z,-0.95
2018-12-18T05:09:01.561Z,-0.94
2018-12-18T05:10:01.544Z,-0.92
2018-12-18T05:11:01.528Z,-0.92
2018-12-18T05:12:01.501Z,-0.95
2018-12-18T05:13:01.482Z,-0.92
2018-12-18T05:14:01.458Z,-0.91
2018-12-18T05:15:01.446Z,-0.97
2018-12-18T05:16:01.425Z,-1.01
2018-12-18T05:17:01.417Z,-1.01
2018-12-18T05:18:01.397Z,-1.01
2018-12-18T05:19:01.362Z,-1.01
2018-12-18T05:20:01.340Z,-1.07
2018-12-18T05:21:01.318Z,-1.19
2018-12-18T05:22:01.300Z,-1.23
2018-12-18T05:23:01.283Z,-1.25
2018-12-18T05:24:01.257Z,-1.20
2018-12-18T05:25:01.236Z,-1.20
2018-12-18T05:26:01.221Z,-1.31
2018-12-18T05:27:01.205Z,-1.30
2018-12-18T05:28:01.178Z,-1.30
2018-12-18T05:29:01.187Z,-1.41
2018-12-18T05:30:01.140Z,-1.43
2018-12-18T05:31:01.128Z,-1.52
2018-12-18T05:32:01.102Z,-1.49
2018-12-18T05:33:01.077Z,-1.59
2018-12-18T05:34:01.068Z,-1.56
2018-12-18T05:35:01.036Z,-1.55
2018-12-18T05:36:01.025Z,-1.52
2018-12-18T05:37:00.992Z,-1.51
2018-12-18T05:38:00.978Z,-1.54
2018-12-18T05:39:00.956Z,-1.54
2018-12-18T05:40:00.941Z,-1.58
2018-12-18T05:41:00.931Z,-1.55
2018-12-18T05:42:00.897Z,-1.48
2018-12-18T05:43:00.873Z,-1.56
2018-12-18T05:44:00.872Z,-1.61
2018-12-18T05:45:00.849Z,-1.61
2018-12-18T05:46:00.811Z,-1.64
2018-12-18T05:47:00.796Z,-1.56
2018-12-18T05:48:00.776Z,-1.62
2018-12-18T05:49:00.754Z,-1.56
2018-12-18T05:50:00.738Z,-1.58
2018-12-18T05:51:00.715Z,-1.62
2018-12-18T05:52:00.693Z,-1.66
2018-12-18T05:53:00.679Z,-1.64
2018-12-18T05:54:00.655Z,-1.64
2018-12-18T05:55:00.638Z,-1.67
2018-12-18T05:56:00.611Z,-1.67
2018-12-18T05:57:00.593Z,-1.70
2018-12-18T05:58:00.572Z,-1.73
2018-12-18T05:59:00.547Z,-1.72
2018-12-18T06:00:00.541Z,-1.66
2018-12-18T06:01:00.510Z,-1.74
2018-12-18T06:02:00.492Z,-1.69
2018-12-18T06:03:00.493Z,-1.64
2018-12-18T06:04:00.452Z,-1.74
2018-12-18T06:05:03.341Z,-1.79
2018-12-18T06:06:00.414Z,-1.74
2018-12-18T06:07:00.412Z,-1.76
2018-12-18T06:08:00.378Z,-1.79
2018-12-18T06:09:00.353Z,-1.87
2018-12-18T06:10:00.331Z,-1.94
2018-12-18T06:11:00.346Z,-1.92
2018-12-18T06:12:00.297Z,-1.97
2018-12-18T06:13:00.266Z,-1.95
2018-12-18T06:14:00.245Z,-1.92
2018-12-18T06:15:00.322Z,-1.91
2018-12-18T06:16:00.221Z,-1.88
2018-12-18T06:17:00.182Z,-1.98
2018-12-18T06:18:00.168Z,-1.94
2018-12-18T06:19:00.146Z,-1.92
2018-12-18T06:20:00.142Z,-1.95
2018-12-18T06:21:00.106Z,-2.03
2018-12-18T06:22:00.091Z,-2.05
2018-12-18T06:23:00.068Z,-2.03
2018-12-18T06:24:00.049Z,-2.05
2018-12-18T06:25:00.025Z,-2.06
2018-12-18T06:26:00.007Z,-2.06
2018-12-18T06:26:59.987Z,-2.16
2018-12-18T06:27:59.972Z,-2.10
2018-12-18T06:28:59.948Z,-2.21
2018-12-18T06:29:59.926Z,-2.21
2018-12-18T06:30:59.907Z,-2.20
2018-12-18T06:31:59.879Z,-2.23
2018-12-18T06:32:59.876Z,-2.26
2018-12-18T06:33:59.844Z,-2.27
2018-12-18T06:34:59.825Z,-2.21
2018-12-18T06:35:59.803Z,-2.27
2018-12-18T06:36:59.787Z,-2.23
2018-12-18T06:37:59.759Z,-2.30
2018-12-18T06:38:59.745Z,-2.34
2018-12-18T06:39:59.726Z,-2.42
2018-12-18T06:40:59.704Z,-2.49
2018-12-18T06:41:59.684Z,-2.48
2018-12-18T06:42:59.664Z,-2.49
2018-12-18T06:43:59.636Z,-2.49
2018-12-18T06:44:59.624Z,-2.52
2018-12-18T06:45:59.598Z,-2.52
2018-12-18T06:46:59.591Z,-2.50
2018-12-18T06:47:59.559Z,-2.53
2018-12-18T06:48:59.538Z,-2.55
2018-12-18T06:49:59.519Z,-2.49
2018-12-18T06:50:59.503Z,-2.55
2018-12-18T06:51:59.473Z,-2.53
2018-12-18T06:52:59.451Z,-2.61
2018-12-18T06:53:59.435Z,-2.56
2018-12-18T06:54:59.414Z,-2.64
2018-12-18T06:55:59.389Z,-2.58
2018-12-18T06:56:59.379Z,-2.58
2018-12-18T06:57:59.358Z,-2.56
2018-12-18T06:58:59.333Z,-2.48
2018-12-18T06:59:59.312Z,-2.58
2018-12-18T07:00:59.292Z,-2.48
2018-12-18T07:01:59.278Z,-2.48
2018-12-18T07:02:59.285Z,-2.43
2018-12-18T07:03:59.226Z,-2.48
2018-12-18T07:04:59.207Z,-2.45
2018-12-18T07:05:59.183Z,-2.42
2018-12-18T07:06:59.165Z,-2.48
2018-12-18T07:07:59.143Z,-2.45
2018-12-18T07:08:59.125Z,-2.50
2018-12-18T07:09:59.105Z,-2.55
2018-12-18T07:10:59.085Z,-2.48
2018-12-18T07:11:59.062Z,-2.60
2018-12-18T07:12:59.042Z,-2.49
2018-12-18T07:13:59.027Z,-2.50
2018-12-18T07:14:59.061Z,-2.48
2018-12-18T07:15:58.984Z,-2.46
2018-12-18T07:16:58.963Z,-2.52
2018-12-18T07:17:58.934Z,-2.48
2018-12-18T07:18:58.922Z,-2.58
2018-12-18T07:19:58.896Z,-2.49
2018-12-18T07:20:58.877Z,-2.50
2018-12-18T07:21:58.855Z,-2.49
2018-12-18T07:22:58.836Z,-2.50
2018-12-18T07:23:58.822Z,-2.60
2018-12-18T07:24:58.791Z,-2.48
2018-12-18T07:25:58.774Z,-2.50
2018-12-18T07:26:58.752Z,-2.48
2018-12-18T07:27:58.732Z,-2.42
2018-12-18T07:28:58.715Z,-2.49
2018-12-18T07:29:58.693Z,-2.50
2018-12-18T07:30:58.671Z,-2.45
2018-12-18T07:31:58.648Z,-2.39
2018-12-18T07:32:58.638Z,-2.46
2018-12-18T07:33:58.621Z,-2.39
2018-12-18T07:34:58.583Z,-2.40
2018-12-18T07:35:58.566Z,-2.32
2018-12-18T07:36:58.546Z,-2.30
2018-12-18T07:37:58.530Z,-2.30
2018-12-18T07:38:58.512Z,-2.32
2018-12-18T07:39:58.486Z,-2.29
2018-12-18T07:40:58.462Z,-2.21
2018-12-18T07:41:58.450Z,-2.30
2018-12-18T07:42:58.424Z,-2.29
2018-12-18T07:43:58.407Z,-2.30
2018-12-18T07:44:58.385Z,-2.27
2018-12-18T07:45:58.363Z,-2.26
2018-12-18T07:46:58.764Z,-2.23
2018-12-18T07:47:58.335Z,-2.24
2018-12-18T07:48:58.299Z,-2.24
2018-12-18T07:49:58.278Z,-2.34
2018-12-18T07:50:58.258Z,-2.30
2018-12-18T07:51:58.237Z,-2.29
2018-12-18T07:52:58.220Z,-2.23
2018-12-18T07:53:58.194Z,-2.26
2018-12-18T07:54:58.195Z,-2.16
2018-12-18T07:56:00.390Z,-2.27
2018-12-18T07:56:58.136Z,-2.27
2018-12-18T07:57:58.108Z,-2.20
2018-12-18T07:58:59.140Z,-2.21
2018-12-18T07:59:58.075Z,-2.26
2018-12-18T08:00:58.055Z,-2.23
2018-12-18T08:01:58.025Z,-2.24
2018-12-18T08:02:58.017Z,-2.18
2018-12-18T08:03:57.992Z,-2.20
2018-12-18T08:04:57.975Z,-2.15
2018-12-18T08:05:57.949Z,-2.21
2018-12-18T08:06:57.950Z,-2.15
2018-12-18T08:07:57.974Z,-2.24
2018-12-18T08:08:57.893Z,-2.20
2018-12-18T08:09:57.871Z,-2.20
2018-12-18T08:10:57.847Z,-2.30
2018-12-18T08:11:57.827Z,-2.26
2018-12-18T08:12:57.808Z,-2.21
2018-12-18T08:13:57.789Z,-2.20
2018-12-18T08:14:57.768Z,-2.23
2018-12-18T08:15:57.746Z,-2.24
2018-12-18T08:16:57.726Z,-2.16
2018-12-18T08:17:57.705Z,-2.16
2018-12-18T08:18:57.681Z,-2.10
2018-12-18T08:19:57.663Z,-2.10
2018-12-18T08:20:57.648Z,-2.03
2018-12-18T08:21:57.626Z,-1.91
2018-12-18T08:22:57.606Z,-1.90
2018-12-18T08:23:57.583Z,-1.67
2018-12-18T08:24:57.568Z,-1.61
2018-12-18T08:25:57.541Z,-1.56
2018-12-18T08:26:57.523Z,-1.45
2018-12-18T08:27:57.503Z,-1.41
2018-12-18T08:28:57.487Z,-1.35
2018-12-18T08:29:57.456Z,-1.33
2018-12-18T08:30:57.441Z,-1.31
2018-12-18T08:31:57.420Z,-1.37
2018-12-18T08:32:57.397Z,-1.25
2018-12-18T08:33:57.378Z,-1.19
2018-12-18T08:34:57.360Z,-1.20
2018-12-18T08:35:57.336Z,-1.19
2018-12-18T08:36:57.325Z,-1.10
2018-12-18T08:37:57.293Z,-1.04
2018-12-18T08:38:57.283Z,-1.09
2018-12-18T08:39:57.253Z,-1.04
2018-12-18T08:40:57.238Z,-1.04
2018-12-18T08:41:57.216Z,-0.99
2018-12-18T08:42:57.194Z,-1.02
2018-12-18T08:43:57.170Z,-1.07
2018-12-18T08:44:57.148Z,-1.12
2018-12-18T08:45:57.132Z,-1.09
2018-12-18T08:46:57.116Z,-1.02
2018-12-18T08:47:57.093Z,-0.95
2018-12-18T08:48:57.067Z,-1.01
2018-12-18T08:49:57.050Z,-0.95
2018-12-18T08:50:57.090Z,-0.98
2018-12-18T08:51:57.010Z,-0.97
2018-12-18T08:52:56.993Z,-0.92
2018-12-18T08:53:56.968Z,-0.82
2018-12-18T08:54:56.951Z,-0.85
2018-12-18T08:55:56.927Z,-0.76
2018-12-18T08:56:56.907Z,-0.78
2018-12-18T08:57:56.886Z,-0.75
2018-12-18T08:58:56.861Z,-0.69
2018-12-18T08:59:56.850Z,-0.64
2018-12-18T09:00:56.832Z,-0.60
2018-12-18T09:01:56.809Z,-0.36
2018-12-18T09:02:56.783Z,-0.29
2018-12-18T09:03:56.776Z,-0.15
2018-12-18T09:04:56.751Z,0.02
2018-12-18T09:05:56.722Z,0.08
2018-12-18T09:06:56.703Z,0.24
2018-12-18T09:07:56.689Z,0.41
2018-12-18T09:08:56.670Z,0.58
2018-12-18T09:09:56.645Z,0.80
2018-12-18T09:10:56.628Z,1.00
2018-12-18T09:11:56.606Z,1.16
2018-12-18T09:12:56.590Z,1.45
2018-12-18T09:13:56.565Z,1.58
2018-12-18T09:14:56.548Z,1.81
2018-12-18T09:15:56.528Z,1.77
2018-12-18T09:16:57.378Z,1.99
2018-12-18T09:17:56.490Z,2.03
2018-12-18T09:18:56.476Z,2.21
2018-12-18T09:19:56.445Z,2.42
2018-12-18T09:20:56.429Z,2.53
2018-12-18T09:21:56.409Z,2.66
2018-12-18T09:22:56.395Z,2.74
2018-12-18T09:23:56.377Z,2.82
2018-12-18T09:24:56.357Z,2.96
2018-12-18T09:25:56.337Z,2.97
2018-12-18T09:26:56.323Z,3.06
2018-12-18T09:27:56.302Z,3.20
2018-12-18T09:28:56.276Z,3.40
2018-12-18T09:29:56.262Z,3.60
2018-12-18T09:30:56.256Z,3.84
2018-12-18T09:31:56.232Z,3.83
2018-12-18T09:32:56.231Z,3.90
2018-12-18T09:33:56.188Z,4.04
2018-12-18T09:34:56.182Z,4.02
2018-12-18T09:35:56.170Z,4.20
2018-12-18T09:36:56.137Z,4.16
2018-12-18T09:37:56.113Z,4.23
2018-12-18T09:38:56.099Z,4.16
2018-12-18T09:39:56.082Z,4.18
2018-12-18T09:40:56.068Z,4.23
2018-12-18T09:41:56.052Z,4.15
2018-12-18T09:42:56.027Z,4.11
2018-12-18T09:43:56.016Z,4.24
2018-12-18T09:44:55.989Z,4.32
2018-12-18T09:45:55.977Z,4.37
2018-12-18T09:46:55.958Z,4.54
2018-12-18T09:47:55.943Z,4.62
2018-12-18T09:48:55.927Z,4.66
2018-12-18T09:49:55.909Z,4.84
2018-12-18T09:50:55.897Z,4.99
2018-12-18T09:51:55.878Z,5.12
2018-12-18T09:52:55.856Z,5.18
2018-12-18T09:53:55.842Z,5.27
2018-12-18T09:54:55.830Z,5.24
2018-12-18T09:55:55.804Z,5.43
2018-12-18T09:56:55.790Z,5.57
2018-12-18T09:57:55.771Z,5.67
2018-12-18T09:58:55.766Z,5.75
2018-12-18T09:59:55.739Z,5.85
2018-12-18T10:00:55.888Z,5.81
2018-12-18T10:01:55.703Z,5.96
2018-12-18T10:02:55.688Z,5.99
2018-12-18T10:03:55.668Z,6.08
2018-12-18T10:04:55.659Z,6.08
2018-12-18T10:05:56.432Z,5.99
2018-12-18T10:06:55.630Z,5.85
2018-12-18T10:07:55.607Z,5.75
2018-12-18T10:08:55.594Z,5.57
2018-12-18T10:09:55.581Z,5.65
2018-12-18T10:10:55.566Z,5.72
2018-12-18T10:11:55.546Z,5.78
2018-12-18T10:12:55.528Z,5.96
2018-12-18T10:13:55.513Z,6.14
2018-12-18T10:14:55.502Z,6.37
2018-12-18T10:15:55.483Z,6.34
2018-12-18T10:16:55.469Z,6.27
2018-12-18T10:17:55.455Z,6.03
2018-12-18T10:18:55.433Z,6.01
2018-12-18T10:19:55.427Z,5.94
2018-12-18T10:20:55.405Z,6.01
2018-12-18T10:21:55.387Z,5.94
2018-12-18T10:22:55.379Z,5.93
2018-12-18T10:23:55.358Z,5.96
2018-12-18T10:24:55.344Z,5.86
2018-12-18T10:25:55.326Z,5.56
2018-12-18T10:26:55.312Z,5.57
2018-12-18T10:27:55.302Z,5.22
2018-12-18T10:28:55.284Z,5.04
2018-12-18T10:29:55.269Z,5.00
2018-12-18T10:30:55.256Z,4.97
2018-12-18T10:31:55.235Z,5.02
2018-12-18T10:32:55.218Z,5.17
2018-12-18T10:33:55.202Z,5.31
2018-12-18T10:34:55.187Z,5.30
2018-12-18T10:35:55.177Z,5.36
2018-12-18T10:36:55.153Z,5.40
2018-12-18T10:37:55.197Z,5.53
2018-12-18T10:38:55.129Z,5.60
2018-12-18T10:39:55.112Z,5.51
2018-12-18T10:40:55.102Z,5.36
2018-12-18T10:41:55.087Z,4.89
2018-12-18T10:42:55.062Z,4.73
2018-12-18T10:43:55.054Z,4.65
2018-12-18T10:44:55.039Z,4.75
2018-12-18T10:45:55.017Z,4.86
2018-12-18T10:46:55.003Z,5.13
2018-12-18T10:47:54.990Z,5.24
2018-12-18T10:48:54.974Z,5.57
2018-12-18T10:49:54.955Z,5.74
2018-12-18T10:50:54.944Z,5.99
2018-12-18T10:51:54.928Z,6.27
2018-12-18T10:52:54.910Z,6.49
2018-12-18T10:53:54.895Z,6.76
2018-12-18T10:54:54.883Z,6.92
2018-12-18T10:55:54.863Z,6.99
2018-12-18T10:56:54.853Z,7.21
2018-12-18T10:57:54.854Z,7.31
2018-12-18T10:58:54.828Z,7.30
2018-12-18T10:59:54.801Z,7.49
2018-12-18T11:00:54.792Z,7.69
2018-12-18T11:01:54.775Z,7.90
2018-12-18T11:02:54.759Z,8.23
2018-12-18T11:03:54.745Z,8.28
2018-12-18T11:04:54.740Z,8.45
2018-12-18T11:05:54.717Z,8.68
2018-12-18T11:06:54.710Z,8.89
2018-12-18T11:07:54.688Z,8.95
2018-12-18T11:08:54.668Z,9.10
2018-12-18T11:09:54.662Z,9.01
2018-12-18T11:10:54.644Z,9.04
2018-12-18T11:11:54.635Z,8.96
2018-12-18T11:12:54.615Z,9.02
2018-12-18T11:13:54.599Z,8.89
2018-12-18T11:14:54.595Z,8.58
2018-12-18T11:15:54.573Z,8.36
2018-12-18T11:16:54.558Z,8.20
2018-12-18T11:17:54.548Z,8.01
2018-12-18T11:18:54.529Z,8.04
2018-12-18T11:19:54.529Z,8.08
2018-12-18T11:20:54.503Z,8.02
2018-12-18T11:21:54.493Z,7.89
2018-12-18T11:22:54.482Z,7.98
2018-12-18T11:23:54.459Z,8.04
2018-12-18T11:24:54.461Z,8.15
2018-12-18T11:25:54.427Z,8.18
2018-12-18T11:26:54.415Z,8.44
2018-12-18T11:27:54.408Z,8.66
2018-12-18T11:28:54.392Z,8.65
2018-12-18T11:29:54.376Z,8.65
2018-12-18T11:30:54.360Z,8.56
2018-12-18T11:31:54.352Z,8.19
2018-12-18T11:32:54.341Z,8.28
2018-12-18T11:33:54.320Z,8.26
2018-12-18T11:34:54.307Z,8.40
2018-12-18T11:35:54.294Z,8.36
2018-12-18T11:36:54.310Z,8.50
2018-12-18T11:37:54.271Z,8.53
2018-12-18T11:38:54.251Z,8.68
2018-12-18T11:39:54.239Z,8.70
2018-12-18T11:40:54.222Z,8.68
2018-12-18T11:41:54.209Z,8.55
2018-12-18T11:42:54.195Z,8.63
2018-12-18T11:43:54.182Z,8.76
2018-12-18T11:44:54.166Z,8.70
2018-12-18T11:45:54.156Z,8.65
2018-12-18T11:46:54.153Z,8.63
2018-12-18T11:47:54.127Z,8.81
2018-12-18T11:48:54.113Z,8.77
2018-12-18T11:49:54.101Z,8.53
2018-12-18T11:50:54.087Z,8.48
2018-12-18T11:51:54.080Z,8.53
2018-12-18T11:52:54.068Z,8.56
2018-12-18T11:53:54.052Z,8.52
2018-12-18T11:54:54.124Z,7.98
2018-12-18T11:55:54.026Z,7.55
2018-12-18T11:56:54.002Z,7.53
2018-12-18T11:57:53.996Z,7.43
2018-12-18T11:58:53.995Z,7.61
2018-12-18T11:59:53.972Z,7.61
2018-12-18T12:00:53.955Z,7.80
2018-12-18T12:01:53.943Z,7.92
2018-12-18T12:02:53.924Z,7.98
2018-12-18T12:03:53.915Z,8.16
2018-12-18T12:04:53.901Z,8.16
2018-12-18T12:05:53.889Z,8.20
2018-12-18T12:06:53.871Z,8.22
2018-12-18T12:07:53.860Z,8.15
2018-12-18T12:08:53.842Z,8.22
2018-12-18T12:09:53.833Z,8.28
2018-12-18T12:10:53.818Z,8.25
2018-12-18T12:11:53.808Z,8.29
2018-12-18T12:12:53.796Z,8.19
2018-12-18T12:13:53.780Z,8.10
2018-12-18T12:14:53.766Z,7.83
2018-12-18T12:15:53.771Z,7.95
2018-12-18T12:16:53.741Z,8.01
2018-12-18T12:17:53.721Z,8.15
2018-12-18T12:18:53.735Z,8.22
2018-12-18T12:19:53.698Z,8.40
2018-12-18T12:20:53.684Z,8.63
2018-12-18T12:21:53.674Z,8.84
2018-12-18T12:22:53.653Z,9.05
2018-12-18T12:23:53.639Z,9.39
2018-12-18T12:24:53.629Z,9.65
2018-12-18T12:25:53.616Z,10.05
2018-12-18T12:26:53.615Z,10.33
2018-12-18T12:27:53.595Z,10.61
2018-12-18T12:28:53.573Z,10.78
2018-12-18T12:29:53.571Z,11.06
2018-12-18T12:30:53.564Z,11.14
2018-12-18T12:31:53.539Z,11.33
2018-12-18T12:32:53.535Z,11.52
2018-12-18T12:33:53.511Z,11.58
2018-12-18T12:34:53.511Z,11.61
2018-12-18T12:35:53.486Z,11.55
2018-12-18T12:36:53.478Z,11.65
2018-12-18T12:37:53.461Z,11.75
2018-12-18T12:38:53.452Z,11.88
2018-12-18T12:39:53.433Z,11.90
2018-12-18T12:40:53.423Z,11.95
2018-12-18T12:41:53.421Z,11.96
2018-12-18T12:42:53.393Z,11.94
2018-12-18T12:43:53.380Z,11.82
2018-12-18T12:44:53.367Z,11.80
2018-12-18T12:45:53.356Z,11.67
2018-12-18T12:46:53.363Z,11.58
2018-12-18T12:47:53.340Z,11.54
2018-12-18T12:48:53.321Z,11.54
2018-12-18T12:49:53.301Z,11.44
2018-12-18T12:50:53.308Z,11.35
2018-12-18T12:51:53.281Z,11.18
2018-12-18T12:52:53.269Z,10.85
2018-12-18T12:53:53.262Z,10.79
2018-12-18T12:54:53.249Z,11.07
2018-12-18T12:55:53.230Z,11.19
2018-12-18T12:56:53.236Z,11.22
2018-12-18T12:57:53.212Z,11.18
2018-12-18T12:58:53.190Z,11.33